createdAt,value
2023-02-26T00:00:37.361Z,87
2023-02-26T00:01:44.355Z,87
2023-02-26T00:02:51.883Z,87
2023-02-26T00:04:01.265Z,87
2023-02-26T00:05:08.611Z,87
2023-02-26T00:06:15.630Z,87
2023-02-26T00:07:22.499Z,87
2023-02-26T00:08:31.764Z,87
2023-02-26T00:09:39.588Z,87
2023-02-26T00:10:47.633Z,87
2023-02-26T00:11:54.580Z,87
2023-02-26T00:13:01.947Z,88
2023-02-26T00:14:08.935Z,87
2023-02-26T00:15:15.883Z,87
2023-02-26T00:16:23.940Z,87
2023-02-26T00:17:33.286Z,87
2023-02-26T00:18:47.339Z,86
2023-02-26T00:19:54.335Z,86
2023-02-26T00:21:06.898Z,86
2023-02-26T00:22:13.867Z,86
2023-02-26T00:23:21.811Z,86
2023-02-26T00:24:28.774Z,86
2023-02-26T00:25:37.247Z,86
2023-02-26T00:26:44.179Z,86
2023-02-26T00:27:52.665Z,86
2023-02-26T00:28:59.718Z,87
2023-02-26T00:30:06.540Z,87
2023-02-26T00:31:13.789Z,87
2023-02-26T00:32:21.805Z,87
2023-02-26T00:33:28.592Z,87
2023-02-26T00:34:35.756Z,87
2023-02-26T00:35:42.909Z,86
2023-02-26T00:36:49.873Z,86
2023-02-26T00:38:02.001Z,87
2023-02-26T00:39:15.101Z,86
2023-02-26T00:40:29.525Z,87
2023-02-26T00:41:42.531Z,87
2023-02-26T00:42:52.831Z,87
2023-02-26T00:43:59.857Z,86
2023-02-26T00:45:06.876Z,86
2023-02-26T00:46:16.050Z,87
2023-02-26T00:47:28.070Z,86
2023-02-26T00:48:45.218Z,87
2023-02-26T00:49:54.497Z,87
2023-02-26T00:51:11.658Z,87
2023-02-26T00:52:25.610Z,87
2023-02-26T00:53:32.582Z,87
2023-02-26T00:54:39.682Z,86
2023-02-26T00:55:47.858Z,87
2023-02-26T00:56:55.030Z,87
2023-02-26T00:58:06.059Z,87
2023-02-26T00:59:13.002Z,87
2023-02-26T01:00:20.052Z,87
2023-02-26T01:01:27.167Z,87
2023-02-26T01:02:34.033Z,86
2023-02-26T01:03:41.933Z,86
2023-02-26T01:04:49.688Z,86
2023-02-26T01:05:56.681Z,86
2023-02-26T01:07:03.760Z,86
2023-02-26T01:08:11.644Z,86
2023-02-26T01:09:26.706Z,86
2023-02-26T01:10:36.264Z,87
2023-02-26T01:11:43.280Z,86
2023-02-26T01:12:50.307Z,86
2023-02-26T01:13:57.334Z,86
2023-02-26T01:15:05.456Z,86
2023-02-26T01:16:15.094Z,86
2023-02-26T01:17:21.900Z,86
2023-02-26T01:18:30.422Z,86
2023-02-26T01:19:40.956Z,86
2023-02-26T01:20:53.123Z,86
2023-02-26T01:22:00.146Z,86
2023-02-26T01:23:07.967Z,86
2023-02-26T01:24:24.250Z,86
2023-02-26T01:25:32.488Z,86
2023-02-26T01:26:45.020Z,86
2023-02-26T01:27:54.087Z,86
2023-02-26T01:29:03.079Z,86
2023-02-26T01:30:10.152Z,86
2023-02-26T01:31:20.471Z,86
2023-02-26T01:32:35.336Z,86
2023-02-26T01:33:47.349Z,86
2023-02-26T01:34:57.175Z,86
2023-02-26T01:36:09.265Z,86
2023-02-26T01:37:16.188Z,86
2023-02-26T01:38:28.346Z,87
2023-02-26T01:39:47.287Z,86
2023-02-26T01:40:57.221Z,86
2023-02-26T01:42:09.241Z,86
2023-02-26T01:43:23.513Z,86
2023-02-26T01:44:36.080Z,86
2023-02-26T01:45:46.751Z,86
2023-02-26T01:46:57.387Z,86
2023-02-26T01:48:14.630Z,87
2023-02-26T01:49:24.482Z,87
2023-02-26T01:50:31.495Z,86
2023-02-26T01:51:39.525Z,87
2023-02-26T01:52:51.537Z,87
2023-02-26T01:54:06.727Z,86
2023-02-26T01:55:14.816Z,86
2023-02-26T01:56:25.026Z,86
2023-02-26T01:57:33.109Z,86
2023-02-26T01:58:40.146Z,86
2023-02-26T01:59:48.750Z,86
2023-02-26T02:00:56.776Z,86
2023-02-26T02:02:03.948Z,86
2023-02-26T02:03:11.806Z,87
2023-02-26T02:04:18.846Z,87
2023-02-26T02:05:25.846Z,86
2023-02-26T02:06:35.745Z,86
2023-02-26T02:07:42.628Z,86
2023-02-26T02:08:50.180Z,86
2023-02-26T02:09:58.590Z,86
2023-02-26T02:11:05.511Z,86
2023-02-26T02:12:14.474Z,86
2023-02-26T02:13:26.489Z,87
2023-02-26T02:14:33.462Z,86
2023-02-26T02:15:50.856Z,86
2023-02-26T02:17:03.090Z,86
2023-02-26T02:18:17.794Z,86
2023-02-26T02:19:24.790Z,86
2023-02-26T02:20:42.138Z,86
2023-02-26T02:21:55.734Z,86
2023-02-26T02:23:13.926Z,86
2023-02-26T02:24:23.115Z,86
2023-02-26T02:25:40.245Z,86
2023-02-26T02:26:53.297Z,86
2023-02-26T02:28:03.063Z,86
2023-02-26T02:29:17.832Z,86
2023-02-26T02:30:29.849Z,86
2023-02-26T02:31:44.234Z,86
2023-02-26T02:32:56.164Z,86
2023-02-26T02:34:05.548Z,86
2023-02-26T02:35:21.373Z,86
2023-02-26T02:36:30.225Z,86
2023-02-26T02:37:47.344Z,86
2023-02-26T02:38:54.188Z,86
2023-02-26T02:40:02.179Z,86
2023-02-26T02:41:11.746Z,86
2023-02-26T02:42:18.627Z,86
2023-02-26T02:43:26.732Z,86
2023-02-26T02:44:33.841Z,87
2023-02-26T02:45:44.388Z,86
2023-02-26T02:46:59.159Z,86
2023-02-26T02:48:05.974Z,86
2023-02-26T02:49:15.474Z,86
2023-02-26T02:50:27.533Z,86
2023-02-26T02:51:35.379Z,86
2023-02-26T02:52:48.798Z,86
2023-02-26T02:54:01.369Z,86
2023-02-26T02:55:08.379Z,86
2023-02-26T02:56:22.026Z,86
2023-02-26T02:57:32.151Z,87
2023-02-26T02:58:38.970Z,86
2023-02-26T02:59:45.902Z,86
2023-02-26T03:00:52.793Z,86
2023-02-26T03:02:00.684Z,86
2023-02-26T03:03:07.672Z,86
2023-02-26T03:04:19.777Z,86
2023-02-26T03:05:26.615Z,86
2023-02-26T03:06:34.146Z,86
2023-02-26T03:07:41.754Z,86
2023-02-26T03:08:55.121Z,86
2023-02-26T03:10:02.071Z,86
2023-02-26T03:11:09.076Z,86
2023-02-26T03:12:15.893Z,86
2023-02-26T03:13:22.728Z,86
2023-02-26T03:14:29.746Z,86
2023-02-26T03:15:36.703Z,86
2023-02-26T03:16:48.837Z,86
2023-02-26T03:18:00.887Z,86
2023-02-26T03:19:15.870Z,86
2023-02-26T03:20:30.874Z,86
2023-02-26T03:21:42.231Z,86
2023-02-26T03:22:58.269Z,87
2023-02-26T03:24:08.008Z,87
2023-02-26T03:25:20.096Z,87
2023-02-26T03:26:31.436Z,86
2023-02-26T03:27:43.410Z,86
2023-02-26T03:28:53.166Z,86
2023-02-26T03:30:06.776Z,86
2023-02-26T03:31:18.845Z,85
2023-02-26T03:32:34.156Z,85
2023-02-26T03:33:42.312Z,85
2023-02-26T03:35:01.112Z,86
2023-02-26T03:36:13.310Z,86
2023-02-26T03:37:24.380Z,85
2023-02-26T03:38:37.371Z,85
2023-02-26T03:39:49.316Z,85
2023-02-26T03:40:58.096Z,86
2023-02-26T03:42:05.984Z,85
2023-02-26T03:43:20.777Z,85
2023-02-26T03:44:34.097Z,86
2023-02-26T03:45:41.040Z,86
2023-02-26T03:46:47.837Z,85
2023-02-26T03:47:58.490Z,86
2023-02-26T03:49:05.894Z,86
2023-02-26T03:50:12.669Z,86
2023-02-26T03:51:27.403Z,86
2023-02-26T03:52:36.626Z,86
2023-02-26T03:53:43.511Z,86
2023-02-26T03:54:55.142Z,86
2023-02-26T03:56:02.533Z,85
2023-02-26T03:57:12.384Z,86
2023-02-26T03:58:19.311Z,86
2023-02-26T03:59:29.577Z,86
2023-02-26T04:00:36.552Z,86
2023-02-26T04:01:43.455Z,85
2023-02-26T04:02:55.700Z,85
2023-02-26T04:04:02.752Z,86
2023-02-26T04:05:09.727Z,86
2023-02-26T04:06:19.700Z,85
2023-02-26T04:07:26.887Z,85
2023-02-26T04:08:34.036Z,85
2023-02-26T04:09:40.928Z,85
2023-02-26T04:10:47.909Z,85
2023-02-26T04:12:02.811Z,85
2023-02-26T04:13:09.883Z,85
2023-02-26T04:14:16.850Z,85
2023-02-26T04:15:23.805Z,85
2023-02-26T04:16:31.296Z,85
2023-02-26T04:17:38.164Z,85
2023-02-26T04:18:45.025Z,85
2023-02-26T04:19:51.941Z,86
2023-02-26T04:20:58.833Z,85
2023-02-26T04:22:06.665Z,85
2023-02-26T04:23:13.548Z,85
2023-02-26T04:24:21.300Z,85
2023-02-26T04:25:29.164Z,85
2023-02-26T04:26:37.012Z,86
2023-02-26T04:27:46.729Z,85
2023-02-26T04:28:54.299Z,85
2023-02-26T04:30:01.455Z,85
2023-02-26T04:31:09.663Z,85
2023-02-26T04:32:15.658Z,85
2023-02-26T04:33:22.409Z,85
2023-02-26T04:34:29.388Z,85
2023-02-26T04:35:36.342Z,85
2023-02-26T04:36:45.499Z,85
2023-02-26T04:37:52.488Z,85
2023-02-26T04:39:01.138Z,84
2023-02-26T04:40:07.983Z,85
2023-02-26T04:41:15.162Z,85
2023-02-26T04:42:21.935Z,85
2023-02-26T04:43:28.831Z,84
2023-02-26T04:44:35.915Z,84
2023-02-26T04:45:44.168Z,85
2023-02-26T04:46:51.084Z,85
2023-02-26T04:48:00.649Z,85
2023-02-26T04:49:08.432Z,85
2023-02-26T04:50:15.247Z,85
2023-02-26T04:51:22.197Z,85
2023-02-26T04:52:29.070Z,85
2023-02-26T04:53:37.627Z,85
2023-02-26T04:54:46.014Z,85
2023-02-26T04:55:52.846Z,85
2023-02-26T04:56:59.707Z,85
2023-02-26T04:58:08.484Z,85
2023-02-26T04:59:15.409Z,84
2023-02-26T05:00:22.439Z,85
2023-02-26T05:01:29.439Z,85
2023-02-26T05:02:36.225Z,84
2023-02-26T05:03:44.726Z,84
2023-02-26T05:04:51.573Z,84
2023-02-26T05:05:58.441Z,84
2023-02-26T05:07:06.245Z,84
2023-02-26T05:08:13.166Z,84
2023-02-26T05:09:20.030Z,84
2023-02-26T05:10:26.872Z,84
2023-02-26T05:11:33.719Z,85
2023-02-26T05:12:40.562Z,85
2023-02-26T05:13:48.456Z,85
2023-02-26T05:14:56.762Z,85
2023-02-26T05:16:03.845Z,85
2023-02-26T05:17:11.521Z,85
2023-02-26T05:18:18.418Z,84
2023-02-26T05:19:25.320Z,85
2023-02-26T05:20:32.252Z,85
2023-02-26T05:21:40.044Z,84
2023-02-26T05:22:48.081Z,85
2023-02-26T05:23:55.034Z,85
2023-02-26T05:25:01.965Z,84
2023-02-26T05:26:09.453Z,85
2023-02-26T05:27:16.418Z,85
2023-02-26T05:28:23.272Z,85
2023-02-26T05:29:30.114Z,85
2023-02-26T05:30:37.963Z,85
2023-02-26T05:31:45.756Z,85
2023-02-26T05:32:52.413Z,85
2023-02-26T05:34:00.344Z,85
2023-02-26T05:35:07.530Z,85
2023-02-26T05:36:14.478Z,85
2023-02-26T05:37:21.460Z,84
2023-02-26T05:38:30.180Z,84
2023-02-26T05:39:37.032Z,84
2023-02-26T05:40:46.635Z,85
2023-02-26T05:41:53.601Z,85
2023-02-26T05:43:01.623Z,85
2023-02-26T05:44:09.564Z,84
2023-02-26T05:45:19.207Z,85
2023-02-26T05:46:28.396Z,85
2023-02-26T05:47:34.995Z,85
2023-02-26T05:48:45.666Z,85
2023-02-26T05:49:51.103Z,85
2023-02-26T05:50:58.139Z,85
2023-02-26T05:52:04.960Z,85
2023-02-26T05:53:11.902Z,85
2023-02-26T05:54:20.942Z,85
2023-02-26T05:55:27.844Z,85
2023-02-26T05:56:35.427Z,86
2023-02-26T05:57:43.265Z,85
2023-02-26T05:58:50.103Z,85
2023-02-26T05:59:56.998Z,85
2023-02-26T06:01:03.961Z,85
2023-02-26T06:02:10.946Z,84
2023-02-26T06:03:18.378Z,84
2023-02-26T06:04:28.544Z,84
2023-02-26T06:05:38.428Z,84
2023-02-26T06:06:45.211Z,84
2023-02-26T06:07:52.643Z,84
2023-02-26T06:08:59.555Z,84
2023-02-26T06:10:06.634Z,84
2023-02-26T06:11:14.872Z,84
2023-02-26T06:12:21.850Z,84
2023-02-26T06:13:28.805Z,84
2023-02-26T06:14:35.712Z,84
2023-02-26T06:15:42.665Z,84
2023-02-26T06:16:49.606Z,84
2023-02-26T06:17:56.721Z,84
2023-02-26T06:19:03.659Z,84
2023-02-26T06:20:12.399Z,84
2023-02-26T06:21:19.583Z,84
2023-02-26T06:22:27.957Z,84
2023-02-26T06:23:35.163Z,84
2023-02-26T06:24:43.029Z,85
2023-02-26T06:25:50.412Z,84
2023-02-26T06:26:58.591Z,84
2023-02-26T06:28:06.366Z,84
2023-02-26T06:29:14.084Z,84
2023-02-26T06:30:20.975Z,84
2023-02-26T06:31:29.447Z,84
2023-02-26T06:32:36.997Z,84
2023-02-26T06:33:45.030Z,84
2023-02-26T06:34:52.101Z,83
2023-02-26T06:35:58.983Z,84
2023-02-26T06:37:05.807Z,84
2023-02-26T06:38:13.722Z,84
2023-02-26T06:39:20.596Z,84
2023-02-26T06:40:29.313Z,84
2023-02-26T06:41:36.593Z,84
2023-02-26T06:42:46.437Z,85
2023-02-26T06:43:54.353Z,85
2023-02-26T06:45:01.358Z,84
2023-02-26T06:46:08.414Z,84
2023-02-26T06:47:15.515Z,84
2023-02-26T06:48:24.972Z,84
2023-02-26T06:49:32.811Z,84
2023-02-26T06:50:40.172Z,84
2023-02-26T06:51:47.077Z,84
2023-02-26T06:52:55.834Z,84
2023-02-26T06:54:02.796Z,85
2023-02-26T06:55:09.732Z,84
2023-02-26T06:56:16.626Z,84
2023-02-26T06:57:25.518Z,84
2023-02-26T06:58:32.477Z,85
2023-02-26T06:59:41.064Z,84
2023-02-26T07:00:47.978Z,85
2023-02-26T07:01:58.235Z,85
2023-02-26T07:03:05.110Z,85
2023-02-26T07:04:20.579Z,85
2023-02-26T07:05:25.469Z,85
2023-02-26T07:06:32.393Z,85
2023-02-26T07:07:40.149Z,85
2023-02-26T07:08:47.138Z,85
2023-02-26T07:09:53.993Z,85
2023-02-26T07:11:00.990Z,85
2023-02-26T07:12:08.078Z,85
2023-02-26T07:13:15.692Z,85
2023-02-26T07:14:22.559Z,85
2023-02-26T07:15:29.468Z,85
2023-02-26T07:16:36.509Z,85
2023-02-26T07:17:43.441Z,85
2023-02-26T07:18:50.234Z,85
2023-02-26T07:19:57.177Z,84
2023-02-26T07:21:05.053Z,85
2023-02-26T07:22:11.849Z,84
2023-02-26T07:23:20.026Z,85
2023-02-26T07:24:27.224Z,84
2023-02-26T07:25:34.072Z,84
2023-02-26T07:26:41.020Z,84
2023-02-26T07:27:49.032Z,84
2023-02-26T07:28:55.937Z,83
2023-02-26T07:30:02.784Z,84
2023-02-26T07:31:10.145Z,84
2023-02-26T07:32:17.421Z,84
2023-02-26T07:33:24.232Z,84
2023-02-26T07:34:31.100Z,84
2023-02-26T07:35:38.169Z,84
2023-02-26T07:36:46.895Z,84
2023-02-26T07:37:53.878Z,84
2023-02-26T07:39:04.047Z,84
2023-02-26T07:40:11.260Z,84
2023-02-26T07:41:18.134Z,84
2023-02-26T07:42:25.895Z,84
2023-02-26T07:43:32.848Z,84
2023-02-26T07:44:40.833Z,84
2023-02-26T07:45:47.758Z,84
2023-02-26T07:46:54.588Z,84
2023-02-26T07:48:02.389Z,84
2023-02-26T07:49:09.188Z,84
2023-02-26T07:50:16.052Z,85
2023-02-26T07:51:23.236Z,85
2023-02-26T07:52:30.066Z,84
2023-02-26T07:53:39.350Z,84
2023-02-26T07:54:46.128Z,84
2023-02-26T07:55:55.604Z,84
2023-02-26T07:57:02.662Z,84
2023-02-26T07:58:09.646Z,85
2023-02-26T07:59:16.612Z,84
2023-02-26T08:00:26.948Z,85
2023-02-26T08:01:34.838Z,85
2023-02-26T08:02:43.860Z,85
2023-02-26T08:03:50.783Z,85
2023-02-26T08:04:57.883Z,85
2023-02-26T08:06:04.930Z,85
2023-02-26T08:07:12.700Z,85
2023-02-26T08:08:21.869Z,86
2023-02-26T08:09:28.865Z,86
2023-02-26T08:10:35.925Z,86
2023-02-26T08:11:42.810Z,86
2023-02-26T08:12:49.655Z,86
2023-02-26T08:13:56.523Z,86
2023-02-26T08:15:04.142Z,86
2023-02-26T08:16:11.320Z,86
2023-02-26T08:17:19.664Z,87
2023-02-26T08:18:26.535Z,86
2023-02-26T08:19:33.389Z,86
2023-02-26T08:20:40.201Z,85
2023-02-26T08:21:50.762Z,85
2023-02-26T08:22:56.181Z,85
2023-02-26T08:24:03.360Z,85
2023-02-26T08:25:10.502Z,86
2023-02-26T08:26:17.513Z,85
2023-02-26T08:27:24.425Z,85
2023-02-26T08:28:32.857Z,85
2023-02-26T08:29:39.806Z,85
2023-02-26T08:30:46.909Z,85
2023-02-26T08:31:53.982Z,85
2023-02-26T08:33:00.637Z,85
2023-02-26T08:34:07.612Z,85
2023-02-26T08:35:14.544Z,85
2023-02-26T08:36:21.528Z,85
2023-02-26T08:37:28.636Z,85
2023-02-26T08:38:35.620Z,85
2023-02-26T08:39:42.505Z,84
2023-02-26T08:40:50.759Z,84
2023-02-26T08:41:57.644Z,84
2023-02-26T08:43:05.696Z,84
2023-02-26T08:44:13.814Z,84
2023-02-26T08:45:20.840Z,84
2023-02-26T08:46:30.160Z,83
2023-02-26T08:47:39.519Z,83
2023-02-26T08:48:43.548Z,83
2023-02-26T08:49:50.439Z,83
2023-02-26T08:50:59.058Z,83
2023-02-26T08:52:06.457Z,82
2023-02-26T08:53:13.848Z,83
2023-02-26T08:54:20.751Z,83
2023-02-26T08:55:30.925Z,83
2023-02-26T08:56:37.780Z,83
2023-02-26T08:57:44.639Z,83
2023-02-26T08:58:51.459Z,83
2023-02-26T08:59:58.487Z,84
2023-02-26T09:01:05.579Z,83
2023-02-26T09:02:12.596Z,83
2023-02-26T09:03:19.411Z,82
2023-02-26T09:04:26.269Z,81
2023-02-26T09:05:33.158Z,81
2023-02-26T09:06:40.015Z,80
2023-02-26T09:07:46.770Z,80
2023-02-26T09:08:53.599Z,80
2023-02-26T09:10:00.421Z,81
2023-02-26T09:11:07.507Z,81
2023-02-26T09:12:14.416Z,81
2023-02-26T09:13:21.208Z,83
2023-02-26T09:14:28.084Z,83
2023-02-26T09:15:34.947Z,84
2023-02-26T09:16:41.800Z,84
2023-02-26T09:17:48.763Z,84
2023-02-26T09:18:55.728Z,84
2023-02-26T09:20:02.533Z,83
2023-02-26T09:21:09.480Z,83
2023-02-26T09:22:16.371Z,82
2023-02-26T09:23:23.195Z,81
2023-02-26T09:24:30.166Z,79
2023-02-26T09:25:37.030Z,78
2023-02-26T09:26:43.901Z,79
2023-02-26T09:27:50.662Z,77
2023-02-26T09:28:57.474Z,77
2023-02-26T09:30:04.371Z,77
2023-02-26T09:31:11.538Z,77
2023-02-26T09:32:18.472Z,77
2023-02-26T09:33:25.227Z,78
2023-02-26T09:34:32.155Z,77
2023-02-26T09:35:39.136Z,77
2023-02-26T09:36:45.991Z,77
2023-02-26T09:37:52.861Z,76
2023-02-26T09:38:59.741Z,77
2023-02-26T09:40:06.606Z,76
2023-02-26T09:41:21.611Z,76
2023-02-26T09:42:28.463Z,76
2023-02-26T09:43:35.281Z,75
2023-02-26T09:44:42.355Z,75
2023-02-26T09:45:49.447Z,74
2023-02-26T09:46:56.299Z,74
2023-02-26T09:48:08.348Z,73
2023-02-26T09:49:15.237Z,72
2023-02-26T09:50:22.086Z,72
2023-02-26T09:51:31.974Z,72
2023-02-26T09:52:38.863Z,72
2023-02-26T09:53:48.778Z,72
2023-02-26T09:54:55.669Z,71
2023-02-26T09:56:07.723Z,70
2023-02-26T09:57:14.611Z,69
2023-02-26T09:58:31.946Z,69
2023-02-26T09:59:38.763Z,67
2023-02-26T10:00:45.667Z,66
2023-02-26T10:02:03.062Z,64
2023-02-26T10:03:20.224Z,65
2023-02-26T10:04:37.504Z,64
2023-02-26T10:05:47.072Z,64
2023-02-26T10:07:04.287Z,67
2023-02-26T10:08:16.556Z,62
2023-02-26T10:09:23.534Z,62
2023-02-26T10:10:35.764Z,62
2023-02-26T10:11:52.998Z,62
2023-02-26T10:13:01.949Z,62
2023-02-26T10:14:08.752Z,62
2023-02-26T10:15:16.157Z,62
2023-02-26T10:16:27.449Z,63
2023-02-26T10:17:34.047Z,63
2023-02-26T10:18:48.850Z,64
2023-02-26T10:19:58.446Z,64
2023-02-26T10:21:06.535Z,64
2023-02-26T10:22:18.442Z,65
2023-02-26T10:23:25.276Z,65
2023-02-26T10:24:35.430Z,65
2023-02-26T10:25:42.969Z,65
2023-02-26T10:26:49.715Z,65
2023-02-26T10:28:00.809Z,65
2023-02-26T10:29:17.798Z,65
2023-02-26T10:30:29.698Z,65
2023-02-26T10:31:44.342Z,65
2023-02-26T10:33:01.273Z,65
2023-02-26T10:34:16.188Z,66
2023-02-26T10:35:33.137Z,65
2023-02-26T10:36:39.913Z,66
2023-02-26T10:37:56.782Z,66
2023-02-26T10:39:06.384Z,66
2023-02-26T10:40:19.239Z,66
2023-02-26T10:41:36.166Z,67
2023-02-26T10:42:43.038Z,68
2023-02-26T10:43:54.988Z,68
2023-02-26T10:45:06.833Z,68
2023-02-26T10:46:23.836Z,69
2023-02-26T10:47:38.565Z,69
2023-02-26T10:48:55.571Z,70
2023-02-26T10:50:12.558Z,70
2023-02-26T10:51:19.334Z,70
2023-02-26T10:52:27.033Z,70
2023-02-26T10:53:33.826Z,70
2023-02-26T10:54:40.761Z,70
2023-02-26T10:55:47.574Z,70
2023-02-26T10:56:55.680Z,70
2023-02-26T10:58:02.517Z,70
2023-02-26T10:59:16.615Z,71
2023-02-26T11:00:21.258Z,71
2023-02-26T11:01:28.576Z,71
2023-02-26T11:02:35.046Z,71
2023-02-26T11:03:44.879Z,71
2023-02-26T11:05:05.825Z,71
2023-02-26T11:05:58.719Z,71
2023-02-26T11:07:05.773Z,72
2023-02-26T11:08:13.449Z,71
2023-02-26T11:09:28.021Z,71
2023-02-26T11:10:40.099Z,71
2023-02-26T11:11:52.125Z,71
2023-02-26T11:12:58.984Z,72
2023-02-26T11:14:05.828Z,72
2023-02-26T11:15:12.700Z,73
2023-02-26T11:16:22.478Z,74
2023-02-26T11:17:29.258Z,77
2023-02-26T11:18:36.264Z,81
2023-02-26T11:19:48.193Z,84
2023-02-26T11:21:00.102Z,85
2023-02-26T11:22:06.952Z,85
2023-02-26T11:23:16.698Z,86
2023-02-26T11:24:24.310Z,86
2023-02-26T11:25:36.328Z,87
2023-02-26T11:26:43.119Z,86
2023-02-26T11:27:50.074Z,86
2023-02-26T11:28:56.897Z,86
2023-02-26T11:30:03.800Z,86
2023-02-26T11:31:15.987Z,86
2023-02-26T11:32:23.462Z,86
2023-02-26T11:33:33.239Z,85
2023-02-26T11:34:42.860Z,85
2023-02-26T11:35:49.760Z,84
2023-02-26T11:36:56.582Z,84
2023-02-26T11:38:03.690Z,84
2023-02-26T11:39:10.568Z,83
2023-02-26T11:40:18.250Z,84
2023-02-26T11:41:28.877Z,83
2023-02-26T11:42:35.656Z,83
2023-02-26T11:43:44.537Z,83
2023-02-26T11:44:49.357Z,81
2023-02-26T11:45:56.332Z,81
2023-02-26T11:47:03.238Z,81
2023-02-26T11:48:15.213Z,82
2023-02-26T11:49:25.100Z,81
2023-02-26T11:50:33.199Z,81
2023-02-26T11:51:48.041Z,81
2023-02-26T11:53:05.132Z,79
2023-02-26T11:54:11.981Z,79
2023-02-26T11:55:26.489Z,78
2023-02-26T11:56:33.355Z,78
2023-02-26T11:57:44.722Z,78
2023-02-26T11:58:55.292Z,78
2023-02-26T12:00:01.151Z,78
2023-02-26T12:01:10.183Z,78
2023-02-26T12:02:17.063Z,78
2023-02-26T12:03:26.612Z,77
2023-02-26T12:04:34.641Z,77
2023-02-26T12:05:41.554Z,77
2023-02-26T12:06:48.364Z,77
2023-02-26T12:07:55.305Z,77
2023-02-26T12:09:02.140Z,77
2023-02-26T12:10:17.168Z,77
2023-02-26T12:11:23.992Z,76
2023-02-26T12:12:38.614Z,76
2023-02-26T12:13:50.582Z,76
2023-02-26T12:15:07.632Z,76
2023-02-26T12:16:24.622Z,76
2023-02-26T12:17:42.444Z,74
2023-02-26T12:18:59.565Z,75
2023-02-26T12:20:09.683Z,74
2023-02-26T12:21:24.627Z,73
2023-02-26T12:22:39.011Z,73
2023-02-26T12:23:55.972Z,73
2023-02-26T12:25:12.890Z,71
2023-02-26T12:26:24.754Z,71
2023-02-26T12:27:39.657Z,71
2023-02-26T12:28:52.419Z,70
2023-02-26T12:30:09.422Z,70
2023-02-26T12:31:26.803Z,71
2023-02-26T12:32:38.478Z,70
2023-02-26T12:33:50.434Z,70
2023-02-26T12:35:07.406Z,70
2023-02-26T12:36:19.305Z,69
2023-02-26T12:37:31.219Z,70
2023-02-26T12:38:48.204Z,69
2023-02-26T12:39:57.628Z,70
2023-02-26T12:41:09.528Z,70
2023-02-26T12:42:21.481Z,70
2023-02-26T12:43:28.282Z,70
2023-02-26T12:44:40.185Z,70
2023-02-26T12:45:57.145Z,70
2023-02-26T12:47:11.811Z,69
2023-02-26T12:48:28.787Z,69
2023-02-26T12:49:40.707Z,69
2023-02-26T12:50:55.121Z,69
2023-02-26T12:52:12.207Z,70
2023-02-26T12:53:25.126Z,69
2023-02-26T12:54:37.086Z,69
2023-02-26T12:55:49.033Z,70
2023-02-26T12:56:58.522Z,70
2023-02-26T12:58:08.166Z,70
2023-02-26T12:59:25.310Z,70
2023-02-26T13:00:37.370Z,71
2023-02-26T13:01:56.114Z,72
2023-02-26T13:03:04.802Z,74
2023-02-26T13:04:14.702Z,75
2023-02-26T13:05:26.711Z,76
2023-02-26T13:06:41.754Z,76
2023-02-26T13:07:58.858Z,76
2023-02-26T13:09:08.445Z,77
2023-02-26T13:10:20.447Z,77
2023-02-26T13:11:36.154Z,77
2023-02-26T13:12:50.983Z,77
2023-02-26T13:14:08.494Z,77
2023-02-26T13:15:25.442Z,77
2023-02-26T13:16:42.455Z,76
2023-02-26T13:17:59.714Z,77
2023-02-26T13:19:11.821Z,78
2023-02-26T13:20:21.559Z,78
2023-02-26T13:21:28.960Z,78
2023-02-26T13:22:43.208Z,79
2023-02-26T13:23:52.670Z,78
2023-02-26T13:25:07.388Z,78
2023-02-26T13:26:24.376Z,79
2023-02-26T13:27:31.380Z,79
2023-02-26T13:28:39.428Z,81
2023-02-26T13:29:55.161Z,81
2023-02-26T13:31:10.272Z,83
2023-02-26T13:32:28.585Z,84
2023-02-26T13:33:36.154Z,83
2023-02-26T13:34:43.076Z,83
2023-02-26T13:36:00.053Z,83
2023-02-26T13:37:06.995Z,83
2023-02-26T13:38:18.868Z,82
2023-02-26T13:39:33.683Z,82
2023-02-26T13:40:43.713Z,82
2023-02-26T13:41:55.714Z,81
2023-02-26T13:43:07.633Z,81
2023-02-26T13:44:19.505Z,81
2023-02-26T13:45:36.489Z,82
2023-02-26T13:46:48.342Z,81
2023-02-26T13:47:57.973Z,81
2023-02-26T13:49:09.749Z,81
2023-02-26T13:50:28.243Z,80
2023-02-26T13:51:41.063Z,80
2023-02-26T13:52:50.877Z,80
2023-02-26T13:54:00.289Z,80
2023-02-26T13:55:07.238Z,80
2023-02-26T13:56:14.255Z,80
2023-02-26T13:57:21.205Z,80
2023-02-26T13:58:36.629Z,79
2023-02-26T13:59:43.639Z,79
2023-02-26T14:00:50.593Z,79
2023-02-26T14:02:00.116Z,79
2023-02-26T14:03:17.021Z,78
2023-02-26T14:04:29.020Z,78
2023-02-26T14:05:36.810Z,78
2023-02-26T14:06:51.377Z,78
2023-02-26T14:08:03.517Z,76
2023-02-26T14:09:18.128Z,75
2023-02-26T14:10:25.045Z,75
2023-02-26T14:11:38.927Z,76
2023-02-26T14:12:45.824Z,75
2023-02-26T14:13:54.602Z,75
2023-02-26T14:15:09.413Z,76
2023-02-26T14:16:16.398Z,75
2023-02-26T14:17:30.177Z,75
2023-02-26T14:18:47.165Z,74
2023-02-26T14:19:54.148Z,74
2023-02-26T14:21:01.119Z,75
2023-02-26T14:22:18.103Z,74
2023-02-26T14:23:26.005Z,74
2023-02-26T14:24:32.972Z,74
2023-02-26T14:25:42.567Z,74
2023-02-26T14:26:52.172Z,74
2023-02-26T14:28:03.977Z,74
2023-02-26T14:29:20.906Z,75
2023-02-26T14:30:31.053Z,75
2023-02-26T14:31:38.576Z,75
2023-02-26T14:32:53.185Z,74
2023-02-26T14:34:05.151Z,75
2023-02-26T14:35:12.035Z,74
2023-02-26T14:36:24.117Z,75
2023-02-26T14:37:36.041Z,74
2023-02-26T14:38:44.631Z,75
2023-02-26T14:39:51.512Z,75
2023-02-26T14:41:02.709Z,75
2023-02-26T14:42:09.568Z,75
2023-02-26T14:43:21.476Z,75
2023-02-26T14:44:38.394Z,75
2023-02-26T14:45:48.378Z,75
2023-02-26T14:46:55.504Z,76
2023-02-26T14:48:02.915Z,75
2023-02-26T14:49:10.160Z,75
2023-02-26T14:50:22.063Z,75
2023-02-26T14:51:29.260Z,75
2023-02-26T14:52:45.892Z,76
2023-02-26T14:54:01.301Z,76
2023-02-26T14:55:13.196Z,76
2023-02-26T14:56:25.109Z,77
2023-02-26T14:57:34.568Z,77
2023-02-26T14:58:50.216Z,76
2023-02-26T15:00:05.046Z,77
2023-02-26T15:01:21.778Z,76
2023-02-26T15:02:36.755Z,76
2023-02-26T15:03:49.485Z,76
2023-02-26T15:05:06.437Z,77
2023-02-26T15:06:23.449Z,78
2023-02-26T15:07:35.325Z,77
2023-02-26T15:08:44.737Z,77
2023-02-26T15:10:02.594Z,77
2023-02-26T15:11:19.552Z,76
2023-02-26T15:12:32.585Z,76
2023-02-26T15:13:44.522Z,76
2023-02-26T15:15:01.501Z,76
2023-02-26T15:16:16.129Z,75
2023-02-26T15:17:33.049Z,75
2023-02-26T15:18:45.707Z,75
2023-02-26T15:19:52.609Z,75
2023-02-26T15:21:02.082Z,75
2023-02-26T15:22:19.757Z,75
2023-02-26T15:23:34.594Z,74
2023-02-26T15:24:46.831Z,74
2023-02-26T15:25:53.744Z,74
2023-02-26T15:27:00.637Z,74
2023-02-26T15:28:07.554Z,74
2023-02-26T15:29:14.374Z,73
2023-02-26T15:30:21.257Z,73
2023-02-26T15:31:28.225Z,73
2023-02-26T15:32:35.018Z,73
2023-02-26T15:33:41.892Z,72
2023-02-26T15:34:49.624Z,72
2023-02-26T15:36:04.009Z,72
2023-02-26T15:37:11.903Z,72
2023-02-26T15:38:18.806Z,73
2023-02-26T15:39:26.569Z,73
2023-02-26T15:40:33.470Z,73
2023-02-26T15:41:40.291Z,73
2023-02-26T15:42:47.108Z,73
2023-02-26T15:43:56.527Z,73
2023-02-26T15:45:08.492Z,73
2023-02-26T15:46:16.347Z,73
2023-02-26T15:47:23.230Z,72
2023-02-26T15:48:32.117Z,72
2023-02-26T15:49:39.005Z,72
2023-02-26T15:50:45.894Z,73
2023-02-26T15:51:52.699Z,73
2023-02-26T15:53:00.293Z,72
2023-02-26T15:54:07.127Z,73
2023-02-26T15:55:13.941Z,73
2023-02-26T15:56:20.858Z,73
2023-02-26T15:57:27.772Z,73
2023-02-26T15:58:36.207Z,73
2023-02-26T15:59:43.059Z,73
2023-02-26T16:00:50.820Z,73
2023-02-26T16:01:57.783Z,73
2023-02-26T16:03:04.968Z,72
2023-02-26T16:04:11.785Z,73
2023-02-26T16:05:24.031Z,72
2023-02-26T16:06:30.957Z,72
2023-02-26T16:07:39.662Z,72
2023-02-26T16:08:47.345Z,72
2023-02-26T16:09:55.125Z,73
2023-02-26T16:11:03.188Z,72
2023-02-26T16:12:10.078Z,73
2023-02-26T16:13:19.564Z,73
2023-02-26T16:14:26.676Z,73
2023-02-26T16:15:39.602Z,73
2023-02-26T16:16:46.972Z,72
2023-02-26T16:17:54.746Z,73
2023-02-26T16:19:01.587Z,73
2023-02-26T16:20:11.071Z,72
2023-02-26T16:21:17.388Z,72
2023-02-26T16:22:31.902Z,72
2023-02-26T16:23:38.771Z,73
2023-02-26T16:24:48.814Z,72
2023-02-26T16:26:03.685Z,72
2023-02-26T16:27:10.635Z,72
2023-02-26T16:28:17.579Z,72
2023-02-26T16:29:29.478Z,72